Fort Sill, OK

6:10 PM CDT on July 25, 2016 (GMT -0500)
APRSWXNET | | Change Station

Elev 1112 ft 34.63 °N, 98.44 °W | Updated 47 minutes ago

Clear
Clear
89 °F
Feels Like 97 °F
N
0
Wind Variable Wind from NNW
Gusts 0.0 mph

Today
High -- | Low -- °F
--% Chance of Precip.
Yesterday
High -- | Low -- °F
Precip. -- in
Pressure 29.88 in
Visibility 10.0 miles
Clouds Clear
Heat Index 97 °F
Dew Point 73 °F
Humidity 60%
Rainfall in
Snow Depth Not available.
6:39 AM 8:41 PM
Waning Gibbous, 61% visible
METAR KFSI 252258Z AUTO 35006KT 10SM CLR 34/23 A2991 RMK AO2 SLP118 T03380229
Pressure 29.88 in
Visibility 10.0 miles
Clouds Clear
Heat Index 97 °F
Dew Point 73 °F
Humidity 60%
Rainfall in
Snow Depth Not available.
6:39 AM 8:41 PM
Waning Gibbous, 61% visible
METAR KFSI 252258Z AUTO 35006KT 10SM CLR 34/23 A2991 RMK AO2 SLP118 T03380229

10-Day Weather Forecast

Almanac

Astronomy

Jul. 25, 2016 Rise Set
Actual Time
Civil Twilight
Nautical Twilight
Astronomical Twilight
Moon
Length of Visible Light
Length of Day
Tomorrow will be .
, % of the Moon is Illuminated

Today's Extremes

State Highs State Lows

Community

WunderPhotos

Upload Photos

1,927,441 photos uploaded!

WunderBlog® & News

Nearby

Air Quality

  Air Quality AQ Index Pollutant
Not available.

Snow Depth

Station Depth Elevation

Earthquake Activity

City Distance Mag. Time & Date
Minimum magnitude displayed is 2.5.

Coastal Water Temperatures

Place Temperature

Stations

Nearby Weather Stations

Station Location Temp. Windchill Dew Point Humidity Wind Precip. Elev Updated Type
                   

Watches & Warnings

There are currently no watches in effect.